sensor_id;sensor_type;location;lat;lon;timestamp;temperature;humidity
66962;HTU21D;53897;51.126;5.868;2023-04-09T00:02:23;22.98;45.24
66962;HTU21D;53897;51.126;5.868;2023-04-09T00:04:51;22.95;45.22
66962;HTU21D;53897;51.126;5.868;2023-04-09T00:07:16;22.94;45.22
66962;HTU21D;53897;51.126;5.868;2023-04-09T00:09:42;22.94;45.22
66962;HTU21D;53897;51.126;5.868;2023-04-09T00:12:08;22.92;45.21
66962;HTU21D;53897;51.126;5.868;2023-04-09T00:14:33;22.91;45.17
66962;HTU21D;53897;51.126;5.868;2023-04-09T00:16:59;22.90;45.14
66962;HTU21D;53897;51.126;5.868;2023-04-09T00:19:24;22.88;45.15
66962;HTU21D;53897;51.126;5.868;2023-04-09T00:21:50;22.87;45.12
66962;HTU21D;53897;51.126;5.868;2023-04-09T00:24:17;22.86;45.12
66962;HTU21D;53897;51.126;5.868;2023-04-09T00:26:42;22.86;44.99
66962;HTU21D;53897;51.126;5.868;2023-04-09T00:29:14;22.83;45.02
66962;HTU21D;53897;51.126;5.868;2023-04-09T00:31:39;22.82;45.04
66962;HTU21D;53897;51.126;5.868;2023-04-09T00:34:08;22.82;45.05
66962;HTU21D;53897;51.126;5.868;2023-04-09T00:36:38;22.81;45.03
66962;HTU21D;53897;51.126;5.868;2023-04-09T00:39:04;22.78;45.00
66962;HTU21D;53897;51.126;5.868;2023-04-09T00:41:30;22.78;44.99
66962;HTU21D;53897;51.126;5.868;2023-04-09T00:43:56;22.76;44.96
66962;HTU21D;53897;51.126;5.868;2023-04-09T00:46:22;22.76;44.96
66962;HTU21D;53897;51.126;5.868;2023-04-09T00:48:48;22.73;44.94
66962;HTU21D;53897;51.126;5.868;2023-04-09T00:51:13;22.75;44.90
66962;HTU21D;53897;51.126;5.868;2023-04-09T00:53:40;22.72;44.91
66962;HTU21D;53897;51.126;5.868;2023-04-09T00:56:06;22.71;44.89
66962;HTU21D;53897;51.126;5.868;2023-04-09T00:58:32;22.69;44.88
66962;HTU21D;53897;51.126;5.868;2023-04-09T01:00:58;22.69;44.89
66962;HTU21D;53897;51.126;5.868;2023-04-09T01:03:24;22.67;44.88
66962;HTU21D;53897;51.126;5.868;2023-04-09T01:06:00;22.66;44.86
66962;HTU21D;53897;51.126;5.868;2023-04-09T01:08:32;22.65;44.83
66962;HTU21D;53897;51.126;5.868;2023-04-09T01:11:22;22.63;44.77
66962;HTU21D;53897;51.126;5.868;2023-04-09T01:14:04;22.63;44.75
66962;HTU21D;53897;51.126;5.868;2023-04-09T01:16:34;22.61;44.72
66962;HTU21D;53897;51.126;5.868;2023-04-09T01:19:09;22.60;44.71
66962;HTU21D;53897;51.126;5.868;2023-04-09T01:21:40;22.58;44.69
66962;HTU21D;53897;51.126;5.868;2023-04-09T01:24:17;22.56;44.67
66962;HTU21D;53897;51.126;5.868;2023-04-09T01:27:07;22.56;44.64
66962;HTU21D;53897;51.126;5.868;2023-04-09T01:29:52;22.54;44.64
66962;HTU21D;53897;51.126;5.868;2023-04-09T01:32:20;22.53;44.62
66962;HTU21D;53897;51.126;5.868;2023-04-09T01:34:47;22.53;44.60
66962;HTU21D;53897;51.126;5.868;2023-04-09T01:37:15;22.52;44.60
66962;HTU21D;53897;51.126;5.868;2023-04-09T01:39:41;22.49;44.57
66962;HTU21D;53897;51.126;5.868;2023-04-09T01:42:09;22.48;44.55
66962;HTU21D;53897;51.126;5.868;2023-04-09T01:44:40;22.48;44.53
66962;HTU21D;53897;51.126;5.868;2023-04-09T01:47:07;22.47;44.51
66962;HTU21D;53897;51.126;5.868;2023-04-09T01:49:34;22.46;44.46
66962;HTU21D;53897;51.126;5.868;2023-04-09T01:52:01;22.44;44.45
66962;HTU21D;53897;51.126;5.868;2023-04-09T01:54:27;22.43;44.45
66962;HTU21D;53897;51.126;5.868;2023-04-09T01:56:56;22.41;44.45
66962;HTU21D;53897;51.126;5.868;2023-04-09T01:59:22;22.41;44.41
66962;HTU21D;53897;51.126;5.868;2023-04-09T02:02:00;22.39;44.40
66962;HTU21D;53897;51.126;5.868;2023-04-09T02:04:34;22.39;44.39
66962;HTU21D;53897;51.126;5.868;2023-04-09T02:07:11;22.36;44.38
66962;HTU21D;53897;51.126;5.868;2023-04-09T02:09:41;22.36;44.35
66962;HTU21D;53897;51.126;5.868;2023-04-09T02:12:14;22.36;44.34
66962;HTU21D;53897;51.126;5.868;2023-04-09T02:14:41;22.35;44.32
66962;HTU21D;53897;51.126;5.868;2023-04-09T02:17:11;22.35;44.29
66962;HTU21D;53897;51.126;5.868;2023-04-09T02:19:45;22.33;44.27
66962;HTU21D;53897;51.126;5.868;2023-04-09T02:22:13;22.32;44.25
66962;HTU21D;53897;51.126;5.868;2023-04-09T02:24:40;22.31;44.22
66962;HTU21D;53897;51.126;5.868;2023-04-09T02:27:06;22.28;44.20
66962;HTU21D;53897;51.126;5.868;2023-04-09T02:29:32;22.28;44.19
66962;HTU21D;53897;51.126;5.868;2023-04-09T02:31:58;22.26;44.18
66962;HTU21D;53897;51.126;5.868;2023-04-09T02:34:24;22.26;44.16
66962;HTU21D;53897;51.126;5.868;2023-04-09T02:36:50;22.25;44.14
66962;HTU21D;53897;51.126;5.868;2023-04-09T02:39:16;22.24;44.12
66962;HTU21D;53897;51.126;5.868;2023-04-09T02:41:41;22.24;44.11
66962;HTU21D;53897;51.126;5.868;2023-04-09T02:44:08;22.23;44.09
66962;HTU21D;53897;51.126;5.868;2023-04-09T02:46:34;22.22;44.07
66962;HTU21D;53897;51.126;5.868;2023-04-09T02:48:59;22.21;44.06
66962;HTU21D;53897;51.126;5.868;2023-04-09T02:51:25;22.21;44.00
66962;HTU21D;53897;51.126;5.868;2023-04-09T02:53:51;22.20;44.00
66962;HTU21D;53897;51.126;5.868;2023-04-09T02:56:17;22.19;44.00
66962;HTU21D;53897;51.126;5.868;2023-04-09T02:58:43;22.17;44.02
66962;HTU21D;53897;51.126;5.868;2023-04-09T03:01:08;22.17;44.01
66962;HTU21D;53897;51.126;5.868;2023-04-09T03:03:34;22.17;44.00
66962;HTU21D;53897;51.126;5.868;2023-04-09T03:06:01;22.16;43.99
66962;HTU21D;53897;51.126;5.868;2023-04-09T03:08:27;22.14;43.96
66962;HTU21D;53897;51.126;5.868;2023-04-09T03:10:53;22.12;43.96
66962;HTU21D;53897;51.126;5.868;2023-04-09T03:13:18;22.11;43.94
66962;HTU21D;53897;51.126;5.868;2023-04-09T03:15:44;22.10;43.92
66962;HTU21D;53897;51.126;5.868;2023-04-09T03:18:10;22.10;43.93
66962;HTU21D;53897;51.126;5.868;2023-04-09T03:20:39;22.09;43.91
66962;HTU21D;53897;51.126;5.868;2023-04-09T03:23:06;22.08;43.90
66962;HTU21D;53897;51.126;5.868;2023-04-09T03:25:37;22.06;43.88
66962;HTU21D;53897;51.126;5.868;2023-04-09T03:28:10;22.07;43.87
66962;HTU21D;53897;51.126;5.868;2023-04-09T03:30:42;22.06;43.86
66962;HTU21D;53897;51.126;5.868;2023-04-09T03:33:09;22.04;43.85
66962;HTU21D;53897;51.126;5.868;2023-04-09T03:35:49;22.04;43.82
66962;HTU21D;53897;51.126;5.868;2023-04-09T03:38:18;22.03;43.81
66962;HTU21D;53897;51.126;5.868;2023-04-09T03:40:44;22.01;43.79
66962;HTU21D;53897;51.126;5.868;2023-04-09T03:43:10;22.02;43.78
66962;HTU21D;53897;51.126;5.868;2023-04-09T03:45:39;21.99;43.77
66962;HTU21D;53897;51.126;5.868;2023-04-09T03:48:18;21.97;43.76
66962;HTU21D;53897;51.126;5.868;2023-04-09T03:50:44;21.97;43.74
66962;HTU21D;53897;51.126;5.868;2023-04-09T03:53:14;21.97;43.74
66962;HTU21D;53897;51.126;5.868;2023-04-09T03:55:40;21.95;43.72
66962;HTU21D;53897;51.126;5.868;2023-04-09T03:58:14;21.94;43.71
66962;HTU21D;53897;51.126;5.868;2023-04-09T04:00:39;21.93;43.71
66962;HTU21D;53897;51.126;5.868;2023-04-09T04:03:31;21.93;43.70
66962;HTU21D;53897;51.126;5.868;2023-04-09T04:06:07;21.92;43.69
66962;HTU21D;53897;51.126;5.868;2023-04-09T04:08:43;21.90;43.67
66962;HTU21D;53897;51.126;5.868;2023-04-09T04:11:10;21.90;43.66
66962;HTU21D;53897;51.126;5.868;2023-04-09T04:13:37;21.88;43.66
66962;HTU21D;53897;51.126;5.868;2023-04-09T04:16:07;21.88;43.55
66962;HTU21D;53897;51.126;5.868;2023-04-09T04:18:35;21.87;43.44
66962;HTU21D;53897;51.126;5.868;2023-04-09T04:21:01;21.83;43.53
66962;HTU21D;53897;51.126;5.868;2023-04-09T04:23:27;21.82;43.63
66962;HTU21D;53897;51.126;5.868;2023-04-09T04:26:11;21.79;43.71
66962;HTU21D;53897;51.126;5.868;2023-04-09T04:28:38;21.79;43.74
66962;HTU21D;53897;51.126;5.868;2023-04-09T04:31:14;21.76;43.80
66962;HTU21D;53897;51.126;5.868;2023-04-09T04:33:41;21.76;43.82
66962;HTU21D;53897;51.126;5.868;2023-04-09T04:36:12;21.75;43.84
66962;HTU21D;53897;51.126;5.868;2023-04-09T04:38:47;21.75;43.89
66962;HTU21D;53897;51.126;5.868;2023-04-09T04:41:22;21.75;43.87
66962;HTU21D;53897;51.126;5.868;2023-04-09T04:43:55;21.77;43.84
66962;HTU21D;53897;51.126;5.868;2023-04-09T04:46:23;21.77;43.83
66962;HTU21D;53897;51.126;5.868;2023-04-09T04:48:48;21.77;43.78
66962;HTU21D;53897;51.126;5.868;2023-04-09T04:51:15;21.78;43.76
66962;HTU21D;53897;51.126;5.868;2023-04-09T04:53:46;21.77;43.78
66962;HTU21D;53897;51.126;5.868;2023-04-09T04:56:14;21.77;43.78
66962;HTU21D;53897;51.126;5.868;2023-04-09T04:58:47;21.77;43.80
66962;HTU21D;53897;51.126;5.868;2023-04-09T05:01:14;21.78;43.85
66962;HTU21D;53897;51.126;5.868;2023-04-09T05:03:42;21.79;43.90
66962;HTU21D;53897;51.126;5.868;2023-04-09T05:06:23;21.80;43.96
66962;HTU21D;53897;51.126;5.868;2023-04-09T05:08:49;21.82;44.03
66962;HTU21D;53897;51.126;5.868;2023-04-09T05:11:16;21.84;44.11
66962;HTU21D;53897;51.126;5.868;2023-04-09T05:13:45;21.85;44.17
66962;HTU21D;53897;51.126;5.868;2023-04-09T05:16:18;21.89;44.25
66962;HTU21D;53897;51.126;5.868;2023-04-09T05:18:47;21.91;44.37
66962;HTU21D;53897;51.126;5.868;2023-04-09T05:21:13;21.93;44.39
66962;HTU21D;53897;51.126;5.868;2023-04-09T05:23:41;21.95;44.42
66962;HTU21D;53897;51.126;5.868;2023-04-09T05:26:07;21.98;44.45
66962;HTU21D;53897;51.126;5.868;2023-04-09T05:28:52;22.02;44.41
66962;HTU21D;53897;51.126;5.868;2023-04-09T05:31:20;22.02;44.38
66962;HTU21D;53897;51.126;5.868;2023-04-09T05:33:55;22.03;44.52
66962;HTU21D;53897;51.126;5.868;2023-04-09T05:36:31;22.04;44.62
66962;HTU21D;53897;51.126;5.868;2023-04-09T05:38:58;22.06;44.66
66962;HTU21D;53897;51.126;5.868;2023-04-09T05:41:23;22.07;44.57
66962;HTU21D;53897;51.126;5.868;2023-04-09T05:44:01;22.09;44.58
66962;HTU21D;53897;51.126;5.868;2023-04-09T05:46:28;22.13;44.58
66962;HTU21D;53897;51.126;5.868;2023-04-09T05:48:54;22.14;44.51
66962;HTU21D;53897;51.126;5.868;2023-04-09T05:51:21;22.17;44.31
66962;HTU21D;53897;51.126;5.868;2023-04-09T05:53:47;22.19;44.26
66962;HTU21D;53897;51.126;5.868;2023-04-09T05:56:14;22.19;44.22
66962;HTU21D;53897;51.126;5.868;2023-04-09T05:58:47;22.20;44.16
66962;HTU21D;53897;51.126;5.868;2023-04-09T06:01:13;22.19;44.11
66962;HTU21D;53897;51.126;5.868;2023-04-09T06:03:39;22.17;43.95
66962;HTU21D;53897;51.126;5.868;2023-04-09T06:06:05;22.17;43.93
66962;HTU21D;53897;51.126;5.868;2023-04-09T06:08:33;22.16;43.88
66962;HTU21D;53897;51.126;5.868;2023-04-09T06:10:58;22.16;44.01
66962;HTU21D;53897;51.126;5.868;2023-04-09T06:13:24;22.14;43.96
66962;HTU21D;53897;51.126;5.868;2023-04-09T06:15:50;22.13;43.19
66962;HTU21D;53897;51.126;5.868;2023-04-09T06:18:16;22.14;43.06
66962;HTU21D;53897;51.126;5.868;2023-04-09T06:20:42;22.13;43.08
66962;HTU21D;53897;51.126;5.868;2023-04-09T06:23:08;22.12;43.15
66962;HTU21D;53897;51.126;5.868;2023-04-09T06:25:34;22.11;43.30
66962;HTU21D;53897;51.126;5.868;2023-04-09T06:28:01;22.12;43.31
66962;HTU21D;53897;51.126;5.868;2023-04-09T06:30:27;22.11;43.28
66962;HTU21D;53897;51.126;5.868;2023-04-09T06:32:53;22.11;43.20
66962;HTU21D;53897;51.126;5.868;2023-04-09T06:35:19;22.12;43.14
66962;HTU21D;53897;51.126;5.868;2023-04-09T06:37:45;22.11;43.19
66962;HTU21D;53897;51.126;5.868;2023-04-09T06:40:11;22.10;43.08
66962;HTU21D;53897;51.126;5.868;2023-04-09T06:42:36;22.11;42.98
66962;HTU21D;53897;51.126;5.868;2023-04-09T06:45:09;22.11;42.92
66962;HTU21D;53897;51.126;5.868;2023-04-09T06:47:35;22.09;42.88
66962;HTU21D;53897;51.126;5.868;2023-04-09T06:50:01;22.10;42.84
66962;HTU21D;53897;51.126;5.868;2023-04-09T06:52:27;22.12;42.81
66962;HTU21D;53897;51.126;5.868;2023-04-09T06:54:53;22.11;42.79
66962;HTU21D;53897;51.126;5.868;2023-04-09T06:57:18;22.11;42.85
66962;HTU21D;53897;51.126;5.868;2023-04-09T06:59:44;22.10;42.88
66962;HTU21D;53897;51.126;5.868;2023-04-09T07:02:09;22.10;43.06
66962;HTU21D;53897;51.126;5.868;2023-04-09T07:04:35;22.11;43.19
66962;HTU21D;53897;51.126;5.868;2023-04-09T07:07:01;22.12;43.24
66962;HTU21D;53897;51.126;5.868;2023-04-09T07:09:26;22.12;43.29
66962;HTU21D;53897;51.126;5.868;2023-04-09T07:11:52;22.10;43.33
66962;HTU21D;53897;51.126;5.868;2023-04-09T07:14:18;22.12;43.39
66962;HTU21D;53897;51.126;5.868;2023-04-09T07:16:43;22.13;43.39
66962;HTU21D;53897;51.126;5.868;2023-04-09T07:19:11;22.13;43.41
66962;HTU21D;53897;51.126;5.868;2023-04-09T07:21:37;22.13;43.44
66962;HTU21D;53897;51.126;5.868;2023-04-09T07:24:03;22.14;43.48
66962;HTU21D;53897;51.126;5.868;2023-04-09T07:26:29;22.19;43.52
66962;HTU21D;53897;51.126;5.868;2023-04-09T07:28:54;22.21;43.55
66962;HTU21D;53897;51.126;5.868;2023-04-09T07:31:20;22.25;43.51
66962;HTU21D;53897;51.126;5.868;2023-04-09T07:33:46;22.27;43.50
66962;HTU21D;53897;51.126;5.868;2023-04-09T07:36:11;22.33;43.47
66962;HTU21D;53897;51.126;5.868;2023-04-09T07:38:37;22.37;43.40
66962;HTU21D;53897;51.126;5.868;2023-04-09T07:41:03;22.38;43.35
66962;HTU21D;53897;51.126;5.868;2023-04-09T07:43:30;22.42;43.41
66962;HTU21D;53897;51.126;5.868;2023-04-09T07:45:56;22.43;43.57
66962;HTU21D;53897;51.126;5.868;2023-04-09T07:48:22;22.48;43.61
66962;HTU21D;53897;51.126;5.868;2023-04-09T07:50:47;22.50;43.61
66962;HTU21D;53897;51.126;5.868;2023-04-09T07:53:13;22.53;43.61
66962;HTU21D;53897;51.126;5.868;2023-04-09T07:55:39;22.54;43.58
66962;HTU21D;53897;51.126;5.868;2023-04-09T07:58:08;22.56;43.52
66962;HTU21D;53897;51.126;5.868;2023-04-09T08:00:34;22.61;43.48
66962;HTU21D;53897;51.126;5.868;2023-04-09T08:03:00;22.62;43.46
66962;HTU21D;53897;51.126;5.868;2023-04-09T08:05:28;22.64;43.51
66962;HTU21D;53897;51.126;5.868;2023-04-09T08:07:55;22.66;43.48
66962;HTU21D;53897;51.126;5.868;2023-04-09T08:10:20;22.67;43.53
66962;HTU21D;53897;51.126;5.868;2023-04-09T08:12:47;22.70;43.58
66962;HTU21D;53897;51.126;5.868;2023-04-09T08:15:13;22.71;43.59
66962;HTU21D;53897;51.126;5.868;2023-04-09T08:17:39;22.75;43.57
66962;HTU21D;53897;51.126;5.868;2023-04-09T08:20:05;22.78;43.64
66962;HTU21D;53897;51.126;5.868;2023-04-09T08:22:31;22.80;43.78
66962;HTU21D;53897;51.126;5.868;2023-04-09T08:24:57;22.81;43.84
66962;HTU21D;53897;51.126;5.868;2023-04-09T08:27:23;22.85;43.82
66962;HTU21D;53897;51.126;5.868;2023-04-09T08:29:49;22.88;43.84
66962;HTU21D;53897;51.126;5.868;2023-04-09T08:32:15;22.90;43.77
66962;HTU21D;53897;51.126;5.868;2023-04-09T08:34:41;22.93;43.77
66962;HTU21D;53897;51.126;5.868;2023-04-09T08:37:07;22.95;43.82
66962;HTU21D;53897;51.126;5.868;2023-04-09T08:39:33;22.98;43.83
66962;HTU21D;53897;51.126;5.868;2023-04-09T08:41:59;23.01;43.81
66962;HTU21D;53897;51.126;5.868;2023-04-09T08:44:28;23.03;43.79
66962;HTU21D;53897;51.126;5.868;2023-04-09T08:46:54;23.07;43.77
66962;HTU21D;53897;51.126;5.868;2023-04-09T08:49:20;23.10;43.75
66962;HTU21D;53897;51.126;5.868;2023-04-09T08:51:47;23.14;43.67
66962;HTU21D;53897;51.126;5.868;2023-04-09T08:54:17;23.15;43.67
66962;HTU21D;53897;51.126;5.868;2023-04-09T08:56:46;23.17;43.67
66962;HTU21D;53897;51.126;5.868;2023-04-09T08:59:16;23.20;43.68
66962;HTU21D;53897;51.126;5.868;2023-04-09T09:01:44;23.23;43.67
66962;HTU21D;53897;51.126;5.868;2023-04-09T09:04:12;23.23;43.69
66962;HTU21D;53897;51.126;5.868;2023-04-09T09:06:39;23.26;43.67
66962;HTU21D;53897;51.126;5.868;2023-04-09T09:09:10;23.29;43.67
66962;HTU21D;53897;51.126;5.868;2023-04-09T09:11:38;23.31;43.68
66962;HTU21D;53897;51.126;5.868;2023-04-09T09:14:13;23.34;43.64
66962;HTU21D;53897;51.126;5.868;2023-04-09T09:16:41;23.37;43.54
66962;HTU21D;53897;51.126;5.868;2023-04-09T09:22:01;23.42;43.39
66962;HTU21D;53897;51.126;5.868;2023-04-09T09:24:28;23.43;43.51
66962;HTU21D;53897;51.126;5.868;2023-04-09T09:26:54;23.46;44.15
66962;HTU21D;53897;51.126;5.868;2023-04-09T09:29:21;23.51;44.38
66962;HTU21D;53897;51.126;5.868;2023-04-09T09:31:50;23.53;45.10
66962;HTU21D;53897;51.126;5.868;2023-04-09T09:34:17;23.57;45.33
66962;HTU21D;53897;51.126;5.868;2023-04-09T09:36:44;23.60;46.03
66962;HTU21D;53897;51.126;5.868;2023-04-09T09:39:11;23.64;46.56
66962;HTU21D;53897;51.126;5.868;2023-04-09T09:41:39;23.67;45.69
66962;HTU21D;53897;51.126;5.868;2023-04-09T09:44:07;23.69;45.19
66962;HTU21D;53897;51.126;5.868;2023-04-09T09:46:38;23.70;45.06
66962;HTU21D;53897;51.126;5.868;2023-04-09T09:49:06;23.71;45.03
66962;HTU21D;53897;51.126;5.868;2023-04-09T09:51:33;23.74;45.01
66962;HTU21D;53897;51.126;5.868;2023-04-09T09:54:02;23.76;44.86
66962;HTU21D;53897;51.126;5.868;2023-04-09T09:56:38;23.77;44.64
66962;HTU21D;53897;51.126;5.868;2023-04-09T09:59:19;23.77;44.64
66962;HTU21D;53897;51.126;5.868;2023-04-09T10:01:59;23.80;44.61
66962;HTU21D;53897;51.126;5.868;2023-04-09T10:04:28;23.81;44.59
66962;HTU21D;53897;51.126;5.868;2023-04-09T10:07:00;23.82;44.58
66962;HTU21D;53897;51.126;5.868;2023-04-09T10:09:29;23.83;44.56
66962;HTU21D;53897;51.126;5.868;2023-04-09T10:11:59;23.85;44.54
66962;HTU21D;53897;51.126;5.868;2023-04-09T10:14:26;23.86;44.55
66962;HTU21D;53897;51.126;5.868;2023-04-09T10:16:53;23.88;44.62
66962;HTU21D;53897;51.126;5.868;2023-04-09T10:19:20;23.87;44.51
66962;HTU21D;53897;51.126;5.868;2023-04-09T10:22:02;23.88;43.96
66962;HTU21D;53897;51.126;5.868;2023-04-09T10:24:32;23.87;43.72
66962;HTU21D;53897;51.126;5.868;2023-04-09T10:27:13;23.86;43.67
66962;HTU21D;53897;51.126;5.868;2023-04-09T10:29:58;23.82;43.67
66962;HTU21D;53897;51.126;5.868;2023-04-09T10:32:24;23.82;43.67
66962;HTU21D;53897;51.126;5.868;2023-04-09T10:34:56;23.80;43.67
66962;HTU21D;53897;51.126;5.868;2023-04-09T10:37:25;23.79;43.68
66962;HTU21D;53897;51.126;5.868;2023-04-09T10:39:52;23.76;43.69
66962;HTU21D;53897;51.126;5.868;2023-04-09T10:42:35;23.75;43.70
66962;HTU21D;53897;51.126;5.868;2023-04-09T10:45:13;23.74;43.71
66962;HTU21D;53897;51.126;5.868;2023-04-09T10:47:41;23.73;43.71
66962;HTU21D;53897;51.126;5.868;2023-04-09T10:50:19;23.70;43.74
66962;HTU21D;53897;51.126;5.868;2023-04-09T10:52:46;23.70;43.71
66962;HTU21D;53897;51.126;5.868;2023-04-09T10:55:37;23.68;43.71
66962;HTU21D;53897;51.126;5.868;2023-04-09T10:58:10;23.67;43.72
66962;HTU21D;53897;51.126;5.868;2023-04-09T11:00:44;23.68;43.77
66962;HTU21D;53897;51.126;5.868;2023-04-09T11:03:24;23.67;43.80
66962;HTU21D;53897;51.126;5.868;2023-04-09T11:06:01;23.65;43.87
66962;HTU21D;53897;51.126;5.868;2023-04-09T11:08:29;23.64;43.91
66962;HTU21D;53897;51.126;5.868;2023-04-09T11:10:55;23.61;43.95
66962;HTU21D;53897;51.126;5.868;2023-04-09T11:13:23;23.60;44.00
66962;HTU21D;53897;51.126;5.868;2023-04-09T11:15:50;23.61;44.03
66962;HTU21D;53897;51.126;5.868;2023-04-09T11:18:20;23.59;44.00
66962;HTU21D;53897;51.126;5.868;2023-04-09T11:20:47;23.57;44.03
66962;HTU21D;53897;51.126;5.868;2023-04-09T11:23:14;23.55;44.07
66962;HTU21D;53897;51.126;5.868;2023-04-09T11:25:40;23.54;44.15
66962;HTU21D;53897;51.126;5.868;2023-04-09T11:28:06;23.56;44.22
66962;HTU21D;53897;51.126;5.868;2023-04-09T11:30:34;23.58;44.20
66962;HTU21D;53897;51.126;5.868;2023-04-09T11:33:00;23.60;44.18
66962;HTU21D;53897;51.126;5.868;2023-04-09T11:35:26;23.60;44.16
66962;HTU21D;53897;51.126;5.868;2023-04-09T11:37:52;23.61;44.13
66962;HTU21D;53897;51.126;5.868;2023-04-09T11:40:23;23.62;44.11
66962;HTU21D;53897;51.126;5.868;2023-04-09T11:42:51;23.65;44.09
66962;HTU21D;53897;51.126;5.868;2023-04-09T11:45:19;23.67;44.07
66962;HTU21D;53897;51.126;5.868;2023-04-09T11:47:45;23.69;43.99
66962;HTU21D;53897;51.126;5.868;2023-04-09T11:50:13;23.71;43.95
66962;HTU21D;53897;51.126;5.868;2023-04-09T11:52:39;23.73;43.93
66962;HTU21D;53897;51.126;5.868;2023-04-09T11:55:10;23.74;43.93
66962;HTU21D;53897;51.126;5.868;2023-04-09T11:57:36;23.76;43.96
66962;HTU21D;53897;51.126;5.868;2023-04-09T12:00:08;23.77;43.90
66962;HTU21D;53897;51.126;5.868;2023-04-09T12:02:37;23.80;43.93
66962;HTU21D;53897;51.126;5.868;2023-04-09T12:05:03;23.83;43.88
66962;HTU21D;53897;51.126;5.868;2023-04-09T12:07:33;23.82;43.87
66962;HTU21D;53897;51.126;5.868;2023-04-09T12:10:08;23.85;43.87
66962;HTU21D;53897;51.126;5.868;2023-04-09T12:12:45;23.87;43.88
66962;HTU21D;53897;51.126;5.868;2023-04-09T12:15:19;23.87;43.88
66962;HTU21D;53897;51.126;5.868;2023-04-09T12:17:53;23.89;43.90
66962;HTU21D;53897;51.126;5.868;2023-04-09T12:23:09;23.92;43.90
66962;HTU21D;53897;51.126;5.868;2023-04-09T12:25:38;23.91;43.91
66962;HTU21D;53897;51.126;5.868;2023-04-09T12:28:05;23.94;43.93
66962;HTU21D;53897;51.126;5.868;2023-04-09T12:30:32;23.95;43.92
66962;HTU21D;53897;51.126;5.868;2023-04-09T12:32:59;23.96;43.90
66962;HTU21D;53897;51.126;5.868;2023-04-09T12:35:24;23.97;43.88
66962;HTU21D;53897;51.126;5.868;2023-04-09T12:37:50;23.97;43.90
66962;HTU21D;53897;51.126;5.868;2023-04-09T12:40:17;23.97;43.90
66962;HTU21D;53897;51.126;5.868;2023-04-09T12:42:44;23.98;43.89
66962;HTU21D;53897;51.126;5.868;2023-04-09T12:45:16;23.99;43.87
66962;HTU21D;53897;51.126;5.868;2023-04-09T12:47:43;24.00;43.87
66962;HTU21D;53897;51.126;5.868;2023-04-09T12:50:10;24.00;43.84
66962;HTU21D;53897;51.126;5.868;2023-04-09T12:52:36;24.01;43.79
66962;HTU21D;53897;51.126;5.868;2023-04-09T12:55:04;24.00;43.79
66962;HTU21D;53897;51.126;5.868;2023-04-09T12:57:30;24.01;43.77
66962;HTU21D;53897;51.126;5.868;2023-04-09T12:59:56;24.01;43.78
66962;HTU21D;53897;51.126;5.868;2023-04-09T13:02:22;24.01;43.79
66962;HTU21D;53897;51.126;5.868;2023-04-09T13:04:48;24.02;43.82
66962;HTU21D;53897;51.126;5.868;2023-04-09T13:07:15;24.00;43.82
66962;HTU21D;53897;51.126;5.868;2023-04-09T13:09:45;24.02;43.82
66962;HTU21D;53897;51.126;5.868;2023-04-09T13:12:12;24.02;43.85
66962;HTU21D;53897;51.126;5.868;2023-04-09T13:14:39;24.02;43.88
66962;HTU21D;53897;51.126;5.868;2023-04-09T13:17:05;24.02;43.90
66962;HTU21D;53897;51.126;5.868;2023-04-09T13:19:31;24.02;43.89
66962;HTU21D;53897;51.126;5.868;2023-04-09T13:21:57;24.02;43.90
66962;HTU21D;53897;51.126;5.868;2023-04-09T13:24:22;24.02;43.92
66962;HTU21D;53897;51.126;5.868;2023-04-09T13:26:48;24.02;43.90
66962;HTU21D;53897;51.126;5.868;2023-04-09T13:29:16;24.02;43.93
66962;HTU21D;53897;51.126;5.868;2023-04-09T13:31:42;24.02;43.96
66962;HTU21D;53897;51.126;5.868;2023-04-09T13:34:07;24.02;43.97
66962;HTU21D;53897;51.126;5.868;2023-04-09T13:36:33;24.02;43.96
66962;HTU21D;53897;51.126;5.868;2023-04-09T13:38:59;24.03;43.98
66962;HTU21D;53897;51.126;5.868;2023-04-09T13:41:32;24.04;43.97
66962;HTU21D;53897;51.126;5.868;2023-04-09T13:43:59;24.03;43.99
66962;HTU21D;53897;51.126;5.868;2023-04-09T13:46:25;24.04;43.97
66962;HTU21D;53897;51.126;5.868;2023-04-09T13:48:54;24.04;44.13
66962;HTU21D;53897;51.126;5.868;2023-04-09T13:51:21;24.03;44.01
66962;HTU21D;53897;51.126;5.868;2023-04-09T13:53:47;24.04;44.00
66962;HTU21D;53897;51.126;5.868;2023-04-09T13:56:13;24.03;44.00
66962;HTU21D;53897;51.126;5.868;2023-04-09T13:58:39;24.05;43.99
66962;HTU21D;53897;51.126;5.868;2023-04-09T14:01:06;24.04;43.97
66962;HTU21D;53897;51.126;5.868;2023-04-09T14:03:32;24.05;43.97
66962;HTU21D;53897;51.126;5.868;2023-04-09T14:05:57;24.08;43.99
66962;HTU21D;53897;51.126;5.868;2023-04-09T14:08:23;24.08;44.07
66962;HTU21D;53897;51.126;5.868;2023-04-09T14:10:49;24.08;44.12
66962;HTU21D;53897;51.126;5.868;2023-04-09T14:13:15;24.08;44.14
66962;HTU21D;53897;51.126;5.868;2023-04-09T14:15:41;24.08;44.16
66962;HTU21D;53897;51.126;5.868;2023-04-09T14:18:08;24.08;44.17
66962;HTU21D;53897;51.126;5.868;2023-04-09T14:20:34;24.09;44.19
66962;HTU21D;53897;51.126;5.868;2023-04-09T14:23:00;24.09;44.20
66962;HTU21D;53897;51.126;5.868;2023-04-09T14:25:26;24.10;44.19
66962;HTU21D;53897;51.126;5.868;2023-04-09T14:27:52;24.10;44.19
66962;HTU21D;53897;51.126;5.868;2023-04-09T14:30:17;24.09;44.17
66962;HTU21D;53897;51.126;5.868;2023-04-09T14:32:43;24.10;44.17
66962;HTU21D;53897;51.126;5.868;2023-04-09T14:35:09;24.09;44.16
66962;HTU21D;53897;51.126;5.868;2023-04-09T14:37:34;24.11;44.18
66962;HTU21D;53897;51.126;5.868;2023-04-09T14:40:00;24.10;44.20
66962;HTU21D;53897;51.126;5.868;2023-04-09T14:42:26;24.11;44.19
66962;HTU21D;53897;51.126;5.868;2023-04-09T14:44:51;24.11;44.16
66962;HTU21D;53897;51.126;5.868;2023-04-09T14:47:17;24.11;44.09
66962;HTU21D;53897;51.126;5.868;2023-04-09T14:49:43;24.12;44.05
66962;HTU21D;53897;51.126;5.868;2023-04-09T14:52:08;24.10;44.00
66962;HTU21D;53897;51.126;5.868;2023-04-09T14:54:34;24.12;43.94
66962;HTU21D;53897;51.126;5.868;2023-04-09T14:57:02;24.12;43.96
66962;HTU21D;53897;51.126;5.868;2023-04-09T14:59:28;24.12;43.99
66962;HTU21D;53897;51.126;5.868;2023-04-09T15:01:53;24.13;44.02
66962;HTU21D;53897;51.126;5.868;2023-04-09T15:04:19;24.12;43.95
66962;HTU21D;53897;51.126;5.868;2023-04-09T15:06:45;24.11;43.90
66962;HTU21D;53897;51.126;5.868;2023-04-09T15:09:11;24.12;43.79
66962;HTU21D;53897;51.126;5.868;2023-04-09T15:11:36;24.12;43.73
66962;HTU21D;53897;51.126;5.868;2023-04-09T15:14:02;24.13;43.73
66962;HTU21D;53897;51.126;5.868;2023-04-09T15:16:28;24.12;43.70
66962;HTU21D;53897;51.126;5.868;2023-04-09T15:18:54;24.12;43.69
66962;HTU21D;53897;51.126;5.868;2023-04-09T15:21:22;24.12;43.67
66962;HTU21D;53897;51.126;5.868;2023-04-09T15:23:52;24.13;43.64
66962;HTU21D;53897;51.126;5.868;2023-04-09T15:26:18;24.14;43.64
66962;HTU21D;53897;51.126;5.868;2023-04-09T15:28:45;24.13;43.61